M I D A S
Marine Information and Data Acquisition System
Tripno 1762 of the Zeeleeuw from 2009-07-10 07:18:04 to 2009-07-10 14:34:13
Back to CruiseResearch ActivitiesStationsMapUnderway DataData graphs

EquipmentUnitsComment
TimeDGPSUTC
LatitudeDGPSDM.mWGS84
LongitudeDGPSDM.mWGS84
HeadingGyrodeg 
SOGDGPSknotsSpeed over ground
COGDGPSdegCourse over ground
DepthEcho soundermeters200 kHz
Missing or incorrect values are displayed as -999
Navigation data collected by the RV Zeeleeuw from 2009-07-10 06:19:00 to 2009-07-10 14:42:13
                                                                                    Next 1000 lines
Time Latitude Longitude Heading SOG COG Depth
2009-07-10 06:19:10 51°13.659 2°55.963 127.3 -999 107 -999
2009-07-10 06:19:15 51°13.659 2°55.963 127.1 -999 65 -999
2009-07-10 06:19:20 51°13.659 2°55.963 127 0.1 209 -999
2009-07-10 06:19:25 51°13.66 2°55.963 127.1 -999 156 -999
2009-07-10 06:19:30 51°13.66 2°55.963 127.5 -999 29 -999
2009-07-10 06:19:35 51°13.66 2°55.963 127.8 0.1 48 -999
2009-07-10 06:19:40 51°13.66 2°55.963 127.8 0.1 208 -999
2009-07-10 06:19:45 51°13.66 2°55.963 127.8 -999 172 -999
2009-07-10 06:19:50 51°13.66 2°55.963 127.8 -999 104 -999
2009-07-10 06:19:55 51°13.661 2°55.963 127.8 -999 165 -999
2009-07-10 06:20:00 51°13.661 2°55.962 127.8 -999 150 -999
2009-07-10 06:20:05 51°13.661 2°55.962 127.7 0.1 184 -999
2009-07-10 06:20:10 51°13.661 2°55.962 127.5 0.1 69 -999
2009-07-10 06:20:15 51°13.661 2°55.962 127.1 -999 40 -999
2009-07-10 06:20:20 51°13.661 2°55.962 127.1 -999 56 -999
2009-07-10 06:20:25 51°13.661 2°55.962 127 0.1 190 -999
2009-07-10 06:20:30 51°13.661 2°55.962 127 -999 207 -999
2009-07-10 06:20:35 51°13.662 2°55.962 127.1 -999 191 -999
2009-07-10 06:20:40 51°13.662 2°55.962 127.2 -999 196 -999
2009-07-10 06:20:45 51°13.662 2°55.962 127.2 -999 199 -999
2009-07-10 06:20:50 51°13.662 2°55.962 127.3 -999 258 -999
2009-07-10 06:20:55 51°13.661 2°55.962 127.3 0.1 199 -999
2009-07-10 06:21:00 51°13.661 2°55.962 127.3 -999 67 -999
2009-07-10 06:21:05 51°13.661 2°55.962 127.2 -999 78 -999
2009-07-10 06:21:10 51°13.661 2°55.962 127.2 -999 40 -999
2009-07-10 06:21:15 51°13.661 2°55.962 127.3 -999 359 -999
2009-07-10 06:21:20 51°13.661 2°55.962 127.3 0.1 210 -999
2009-07-10 06:21:25 51°13.661 2°55.962 127.3 -999 206 -999
2009-07-10 06:21:30 51°13.661 2°55.962 127.3 -999 34 -999
2009-07-10 06:21:35 51°13.661 2°55.962 127.3 -999 355 -999
2009-07-10 06:21:40 51°13.661 2°55.962 127.2 -999 212 -999
2009-07-10 06:21:45 51°13.661 2°55.962 127.1 -999 33 -999
2009-07-10 06:21:50 51°13.661 2°55.962 127.1 -999 183 -999
2009-07-10 06:21:55 51°13.661 2°55.962 127.1 0.1 33 -999
2009-07-10 06:22:00 51°13.661 2°55.962 127.1 0.1 19 -999
2009-07-10 06:22:05 51°13.661 2°55.962 127.1 -999 22 -999
2009-07-10 06:22:10 51°13.661 2°55.962 127 -999 198 -999
2009-07-10 06:22:15 51°13.661 2°55.962 127 0.1 198 -999
2009-07-10 06:22:20 51°13.661 2°55.962 127 -999 47 -999
2009-07-10 06:22:25 51°13.661 2°55.962 127.1 -999 8 -999
2009-07-10 06:22:30 51°13.661 2°55.962 127.3 -999 96 -999
2009-07-10 06:22:35 51°13.661 2°55.962 127.5 -999 202 -999
2009-07-10 06:22:40 51°13.661 2°55.962 127.7 -999 183 -999
2009-07-10 06:22:45 51°13.661 2°55.962 127.8 0.1 212 -999
2009-07-10 06:22:50 51°13.661 2°55.962 127.8 -999 32 -999
2009-07-10 06:22:55 51°13.661 2°55.962 127.8 -999 182 -999
2009-07-10 06:23:00 51°13.661 2°55.962 127.8 -999 154 -999
2009-07-10 06:23:05 51°13.661 2°55.962 127.8 0.1 192 -999
2009-07-10 06:23:10 51°13.661 2°55.962 127.6 -999 194 -999
2009-07-10 06:23:15 51°13.662 2°55.962 127.4 -999 208 -999
2009-07-10 06:23:20 51°13.662 2°55.962 127.3 -999 39 -999
2009-07-10 06:23:25 51°13.662 2°55.962 127.3 -999 122 -999
2009-07-10 06:23:30 51°13.662 2°55.962 127.2 -999 144 -999
2009-07-10 06:23:35 51°13.662 2°55.962 127.2 -999 208 -999
2009-07-10 06:23:40 51°13.662 2°55.962 127.2 -999 184 -999
2009-07-10 06:23:45 51°13.662 2°55.962 127.3 -999 249 -999
2009-07-10 06:23:50 51°13.662 2°55.962 127.5 -999 188 -999
2009-07-10 06:23:55 51°13.662 2°55.962 127.6 -999 140 -999
2009-07-10 06:24:00 51°13.662 2°55.962 127.7 -999 21 -999
2009-07-10 06:24:05 51°13.662 2°55.962 127.8 -999 172 -999
2009-07-10 06:24:10 51°13.662 2°55.962 127.8 0.1 28 -999
2009-07-10 06:24:15 51°13.662 2°55.961 127.8 -999 178 -999
2009-07-10 06:24:20 51°13.662 2°55.961 127.8 -999 97 -999
2009-07-10 06:24:25 51°13.662 2°55.961 127.6 0.1 185 -999
2009-07-10 06:24:30 51°13.662 2°55.961 127.5 0.1 187 -999
2009-07-10 06:24:35 51°13.662 2°55.961 127.4 -999 186 -999
2009-07-10 06:24:40 51°13.662 2°55.961 127.3 -999 75 -999
2009-07-10 06:24:45 51°13.662 2°55.961 127.3 0.1 200 -999
2009-07-10 06:24:49 51°13.662 2°55.961 127.3 -999 215 -999
2009-07-10 06:24:54 51°13.662 2°55.961 127.3 0.1 225 -999
2009-07-10 06:24:59 51°13.662 2°55.961 127.3 -999 227 -999
2009-07-10 06:25:05 51°13.662 2°55.961 127.3 0.1 207 -999
2009-07-10 06:25:10 51°13.662 2°55.961 127.3 -999 11 -999
2009-07-10 06:25:15 51°13.662 2°55.961 127.3 -999 74 -999
2009-07-10 06:25:20 51°13.662 2°55.961 127.3 -999 150 -999
2009-07-10 06:25:25 51°13.663 2°55.962 127.3 -999 134 -999
2009-07-10 06:25:29 51°13.663 2°55.962 127.3 -999 134 -999
2009-07-10 06:25:34 51°13.663 2°55.962 127.3 -999 181 -999
2009-07-10 06:25:39 51°13.663 2°55.962 127.3 -999 183 -999
2009-07-10 06:25:45 51°13.663 2°55.961 127.4 -999 189 -999
2009-07-10 06:25:50 51°13.663 2°55.962 127.5 0.1 182 -999
2009-07-10 06:25:55 51°13.663 2°55.962 127.7 -999 147 -999
2009-07-10 06:26:00 51°13.663 2°55.962 127.8 -999 144 -999
2009-07-10 06:26:05 51°13.663 2°55.961 128 -999 214 -999
2009-07-10 06:26:10 51°13.663 2°55.961 128.1 -999 293 -999
2009-07-10 06:26:14 51°13.663 2°55.962 128.1 -999 46 -999
2009-07-10 06:26:19 51°13.663 2°55.962 128.1 -999 49 -999
2009-07-10 06:26:25 51°13.663 2°55.962 128.1 0.1 67 -999
2009-07-10 06:26:30 51°13.663 2°55.961 127.9 -999 116 -999
2009-07-10 06:26:35 51°13.663 2°55.961 127.8 -999 108 -999
2009-07-10 06:26:40 51°13.663 2°55.961 127.5 -999 139 -999
2009-07-10 06:26:45 51°13.663 2°55.961 127.5 -999 32 -999
2009-07-10 06:26:50 51°13.663 2°55.961 127.4 -999 195 -999
2009-07-10 06:26:55 51°13.663 2°55.962 127.3 0.1 178 -999
2009-07-10 06:27:00 51°13.663 2°55.961 127.3 -999 157 -999
2009-07-10 06:27:05 51°13.663 2°55.961 127.2 -999 42 -999
2009-07-10 06:27:10 51°13.663 2°55.961 127.3 -999 46 -999
2009-07-10 06:27:15 51°13.663 2°55.961 127.6 -999 288 -999
2009-07-10 06:27:20 51°13.663 2°55.961 127.8 -999 40 -999
2009-07-10 06:27:25 51°13.663 2°55.961 127.9 0.1 210 -999
2009-07-10 06:27:30 51°13.663 2°55.961 128 -999 196 -999
2009-07-10 06:27:35 51°13.663 2°55.961 128 -999 176 -999
2009-07-10 06:27:40 51°13.663 2°55.961 128 -999 152 -999
2009-07-10 06:27:45 51°13.663 2°55.961 127.8 -999 98 -999
2009-07-10 06:27:50 51°13.663 2°55.961 127.5 -999 68 -999
2009-07-10 06:27:55 51°13.663 2°55.961 127.4 -999 44 -999
2009-07-10 06:28:00 51°13.663 2°55.961 127.3 -999 5 -999
2009-07-10 06:28:05 51°13.662 2°55.961 127.1 -999 176 -999
2009-07-10 06:28:10 51°13.663 2°55.961 127 -999 44 -999
2009-07-10 06:28:15 51°13.663 2°55.961 126.9 -999 73 -999
2009-07-10 06:28:20 51°13.662 2°55.961 126.8 0.1 194 -999
2009-07-10 06:28:25 51°13.663 2°55.961 126.8 -999 192 -999
2009-07-10 06:28:30 51°13.662 2°55.961 127 0.1 179 -999
2009-07-10 06:28:35 51°13.662 2°55.961 127.1 -999 140 -999
2009-07-10 06:28:40 51°13.662 2°55.961 127.1 -999 90 -999
2009-07-10 06:28:45 51°13.662 2°55.961 127 0.1 30 -999
2009-07-10 06:28:50 51°13.662 2°55.961 127 -999 26 -999
2009-07-10 06:28:55 51°13.662 2°55.961 127 -999 86 -999
2009-07-10 06:29:00 51°13.662 2°55.961 127 0.1 217 -999
2009-07-10 06:29:05 51°13.662 2°55.961 127 -999 243 -999
2009-07-10 06:29:10 51°13.662 2°55.961 126.9 -999 36 -999
2009-07-10 06:29:15 51°13.662 2°55.961 126.9 0.1 192 -999
2009-07-10 06:29:20 51°13.662 2°55.961 126.9 -999 188 -999
2009-07-10 06:29:25 51°13.662 2°55.96 126.9 0.1 173 -999
2009-07-10 06:29:30 51°13.662 2°55.96 126.9 0.1 178 -999
2009-07-10 06:29:35 51°13.662 2°55.96 126.9 0.1 205 -999
2009-07-10 06:29:40 51°13.662 2°55.96 126.9 -999 179 -999
2009-07-10 06:29:45 51°13.662 2°55.96 126.9 0.1 199 -999
2009-07-10 06:29:50 51°13.662 2°55.96 126.9 -999 66 -999
2009-07-10 06:29:55 51°13.662 2°55.96 126.9 -999 34 -999
2009-07-10 06:30:00 51°13.662 2°55.96 126.9 -999 11 -999
2009-07-10 06:30:05 51°13.662 2°55.96 126.9 -999 7 -999
2009-07-10 06:30:10 51°13.662 2°55.96 126.9 -999 17 -999
2009-07-10 06:30:15 51°13.662 2°55.96 126.9 -999 200 -999
2009-07-10 06:30:20 51°13.662 2°55.96 126.9 -999 174 -999
2009-07-10 06:30:25 51°13.662 2°55.96 126.9 -999 116 -999
2009-07-10 06:30:30 51°13.662 2°55.96 126.9 -999 136 -999
2009-07-10 06:30:35 51°13.662 2°55.96 126.9 -999 99 -999
2009-07-10 06:30:40 51°13.662 2°55.96 127.1 -999 151 -999
2009-07-10 06:30:45 51°13.662 2°55.96 127.3 -999 175 -999
2009-07-10 06:30:50 51°13.662 2°55.96 127.4 0.1 8 -999
2009-07-10 06:30:55 51°13.662 2°55.96 127.5 -999 16 -999
2009-07-10 06:31:00 51°13.662 2°55.96 127.5 0.1 358 -999
2009-07-10 06:31:05 51°13.662 2°55.96 127.6 0.1 206 -999
2009-07-10 06:31:10 51°13.662 2°55.96 127.6 0.1 163 -999
2009-07-10 06:31:15 51°13.662 2°55.96 127.6 0.1 185 -999
2009-07-10 06:31:20 51°13.662 2°55.96 127.6 0.1 191 -999
2009-07-10 06:31:25 51°13.662 2°55.96 127.5 -999 225 -999
2009-07-10 06:31:30 51°13.662 2°55.96 127.4 -999 23 -999
2009-07-10 06:31:35 51°13.662 2°55.96 127.3 -999 187 -999
2009-07-10 06:31:40 51°13.662 2°55.96 127.3 -999 151 -999
2009-07-10 06:31:45 51°13.662 2°55.96 127.3 -999 29 -999
2009-07-10 06:31:50 51°13.662 2°55.96 127.3 -999 23 -999
2009-07-10 06:31:55 51°13.662 2°55.96 127.5 -999 192 -999
2009-07-10 06:32:00 51°13.662 2°55.96 127.7 -999 15 -999
2009-07-10 06:32:05 51°13.662 2°55.96 127.8 -999 12 -999
2009-07-10 06:32:10 51°13.662 2°55.96 127.8 -999 293 -999
2009-07-10 06:32:15 51°13.662 2°55.96 127.8 0.1 8 -999
2009-07-10 06:32:20 51°13.662 2°55.96 127.8 -999 3 -999
2009-07-10 06:32:25 51°13.662 2°55.96 127.8 -999 79 -999
2009-07-10 06:32:30 51°13.662 2°55.96 127.8 -999 90 -999
2009-07-10 06:32:35 51°13.662 2°55.96 127.7 0.1 201 -999
2009-07-10 06:32:40 51°13.662 2°55.96 127.6 -999 96 -999
2009-07-10 06:32:45 51°13.662 2°55.96 127.5 0.1 198 -999
2009-07-10 06:32:50 51°13.662 2°55.96 127.4 -999 42 -999
2009-07-10 06:32:55 51°13.662 2°55.96 127.3 -999 347 -999
2009-07-10 06:33:00 51°13.662 2°55.96 127.3 -999 313 -999
2009-07-10 06:33:05 51°13.662 2°55.96 127.3 -999 220 -999
2009-07-10 06:33:10 51°13.662 2°55.96 127.3 -999 354 -999
2009-07-10 06:33:15 51°13.662 2°55.96 127.3 -999 271 -999
2009-07-10 06:33:20 51°13.662 2°55.96 127.4 0.1 193 -999
2009-07-10 06:33:25 51°13.662 2°55.96 127.6 -999 204 -999
2009-07-10 06:33:30 51°13.662 2°55.96 127.8 0.1 184 -999
2009-07-10 06:33:35 51°13.662 2°55.96 127.8 -999 23 -999
2009-07-10 06:33:40 51°13.662 2°55.959 127.9 0.1 216 -999
2009-07-10 06:33:45 51°13.662 2°55.959 127.9 -999 18 -999
2009-07-10 06:33:50 51°13.662 2°55.959 127.9 -999 229 -999
2009-07-10 06:33:55 51°13.662 2°55.96 127.9 0.1 40 -999
2009-07-10 06:34:00 51°13.662 2°55.959 127.8 -999 353 -999
2009-07-10 06:34:05 51°13.662 2°55.959 127.7 -999 108 -999
2009-07-10 06:34:10 51°13.662 2°55.959 127.7 -999 198 -999
2009-07-10 06:34:15 51°13.662 2°55.96 127.7 -999 133 -999
2009-07-10 06:34:20 51°13.662 2°55.96 127.7 -999 115 -999
2009-07-10 06:34:25 51°13.663 2°55.96 127.7 -999 145 -999
2009-07-10 06:34:30 51°13.663 2°55.96 127.7 0.1 170 -999
2009-07-10 06:34:35 51°13.663 2°55.96 127.7 -999 52 -999
2009-07-10 06:34:40 51°13.663 2°55.96 127.6 -999 15 -999
2009-07-10 06:34:45 51°13.663 2°55.96 127.6 -999 39 -999
2009-07-10 06:34:50 51°13.663 2°55.96 127.6 -999 3 -999
2009-07-10 06:34:55 51°13.663 2°55.96 127.7 -999 188 -999
2009-07-10 06:35:00 51°13.663 2°55.96 127.8 0.1 202 -999
2009-07-10 06:35:05 51°13.663 2°55.96 127.8 -999 191 -999
2009-07-10 06:35:10 51°13.663 2°55.96 127.8 0.1 199 -999
2009-07-10 06:35:15 51°13.663 2°55.96 127.8 0.1 185 -999
2009-07-10 06:35:20 51°13.663 2°55.96 127.8 -999 227 -999
2009-07-10 06:35:25 51°13.663 2°55.96 127.8 0.1 22 -999
2009-07-10 06:35:30 51°13.663 2°55.96 127.8 -999 260 -999
2009-07-10 06:35:35 51°13.663 2°55.961 127.8 -999 129 -999
2009-07-10 06:35:40 51°13.663 2°55.961 127.8 -999 104 -999
2009-07-10 06:35:45 51°13.663 2°55.96 127.7 -999 25 -999
2009-07-10 06:35:50 51°13.663 2°55.96 127.5 -999 219 -999
2009-07-10 06:35:55 51°13.663 2°55.96 127.3 -999 155 -999
2009-07-10 06:36:00 51°13.663 2°55.96 127.2 0.1 183 -999
2009-07-10 06:36:05 51°13.663 2°55.96 127.1 -999 95 -999
2009-07-10 06:36:10 51°13.663 2°55.96 127.1 -999 210 -999
2009-07-10 06:36:15 51°13.663 2°55.96 127.1 0.1 173 -999
2009-07-10 06:36:20 51°13.663 2°55.96 127.1 -999 182 -999
2009-07-10 06:36:25 51°13.663 2°55.96 127.2 -999 87 -999
2009-07-10 06:36:30 51°13.663 2°55.96 127.3 0.1 186 -999
2009-07-10 06:36:35 51°13.663 2°55.96 127.3 -999 93 -999
2009-07-10 06:36:40 51°13.663 2°55.96 127.4 -999 39 -999
2009-07-10 06:36:45 51°13.663 2°55.96 127.4 -999 16 -999
2009-07-10 06:36:50 51°13.663 2°55.96 127.4 -999 122 -999
2009-07-10 06:36:55 51°13.663 2°55.96 127.4 -999 93 -999
2009-07-10 06:37:00 51°13.663 2°55.96 127.3 -999 39 -999
2009-07-10 06:37:05 51°13.663 2°55.96 127.3 0.1 198 -999
2009-07-10 06:37:10 51°13.663 2°55.96 127.3 -999 199 -999
2009-07-10 06:37:15 51°13.663 2°55.96 127.3 -999 18 -999
2009-07-10 06:37:20 51°13.663 2°55.959 127.3 -999 239 -999
2009-07-10 06:37:25 51°13.663 2°55.959 127.4 -999 198 -999
2009-07-10 06:37:30 51°13.663 2°55.959 127.5 -999 170 -999
2009-07-10 06:37:35 51°13.663 2°55.959 127.5 -999 125 -999
2009-07-10 06:37:40 51°13.663 2°55.959 127.5 -999 196 -999
2009-07-10 06:37:45 51°13.663 2°55.959 127.3 0.1 13 -999
2009-07-10 06:37:50 51°13.663 2°55.959 127.1 -999 30 -999
2009-07-10 06:37:55 51°13.663 2°55.959 127.1 -999 55 -999
2009-07-10 06:38:00 51°13.663 2°55.959 127.1 -999 16 -999
2009-07-10 06:38:05 51°13.663 2°55.959 127.2 0.1 19 -999
2009-07-10 06:38:10 51°13.663 2°55.959 127.3 -999 313 -999
2009-07-10 06:38:15 51°13.663 2°55.959 127.4 0.1 29 -999
2009-07-10 06:38:20 51°13.663 2°55.959 127.5 -999 186 -999
2009-07-10 06:38:25 51°13.663 2°55.959 127.6 0.1 7 -999
2009-07-10 06:38:30 51°13.663 2°55.959 127.8 -999 2 -999
2009-07-10 06:38:35 51°13.663 2°55.959 127.8 -999 122 -999
2009-07-10 06:38:40 51°13.663 2°55.959 127.9 -999 147 -999
2009-07-10 06:38:45 51°13.663 2°55.959 128 -999 344 -999
2009-07-10 06:38:50 51°13.663 2°55.959 128 -999 155 -999
2009-07-10 06:38:55 51°13.663 2°55.959 128 -999 358 -999
2009-07-10 06:39:00 51°13.663 2°55.959 128 -999 346 -999
2009-07-10 06:39:05 51°13.663 2°55.959 127.8 -999 112 -999
2009-07-10 06:39:10 51°13.663 2°55.959 127.6 -999 26 -999
2009-07-10 06:39:15 51°13.663 2°55.959 127.3 0.1 193 -999
2009-07-10 06:39:20 51°13.663 2°55.959 127.2 -999 65 -999
2009-07-10 06:39:25 51°13.663 2°55.959 127.2 -999 107 -999
2009-07-10 06:39:30 51°13.663 2°55.959 127.2 -999 211 -999
2009-07-10 06:39:35 51°13.663 2°55.958 127.2 -999 287 -999
2009-07-10 06:39:40 51°13.662 2°55.959 127.4 -999 51 -999
2009-07-10 06:39:45 51°13.662 2°55.958 127.6 -999 310 -999
2009-07-10 06:39:50 51°13.662 2°55.958 127.8 -999 302 -999
2009-07-10 06:39:55 51°13.662 2°55.959 127.8 -999 158 -999
2009-07-10 06:40:00 51°13.662 2°55.959 127.9 0.1 87 -999
2009-07-10 06:40:05 51°13.662 2°55.959 128 -999 100 -999
2009-07-10 06:40:10 51°13.662 2°55.959 128 -999 212 -999
2009-07-10 06:40:15 51°13.662 2°55.959 127.9 -999 9 -999
2009-07-10 06:40:20 51°13.662 2°55.959 127.8 -999 214 -999
2009-07-10 06:40:25 51°13.662 2°55.959 127.5 -999 15 -999
2009-07-10 06:40:30 51°13.662 2°55.959 127.4 -999 338 -999
2009-07-10 06:40:35 51°13.662 2°55.959 127.4 -999 12 -999
2009-07-10 06:40:40 51°13.662 2°55.959 127.4 -999 327 -999
2009-07-10 06:40:45 51°13.662 2°55.959 127.4 0.1 5 -999
2009-07-10 06:40:50 51°13.662 2°55.959 127.6 -999 191 -999
2009-07-10 06:40:55 51°13.662 2°55.959 127.8 -999 105 -999
2009-07-10 06:41:00 51°13.662 2°55.959 127.8 -999 14 -999
2009-07-10 06:41:05 51°13.662 2°55.959 127.9 0.1 234 -999
2009-07-10 06:41:10 51°13.662 2°55.959 127.9 0.1 171 -999
2009-07-10 06:41:15 51°13.662 2°55.959 127.8 0.1 175 -999
2009-07-10 06:41:20 51°13.662 2°55.959 127.8 -999 119 -999
2009-07-10 06:41:25 51°13.662 2°55.959 127.6 -999 174 -999
2009-07-10 06:41:30 51°13.662 2°55.959 127.4 -999 194 -999
2009-07-10 06:41:35 51°13.662 2°55.959 127.3 -999 123 -999
2009-07-10 06:41:40 51°13.662 2°55.959 127.2 0.1 23 -999
2009-07-10 06:41:45 51°13.662 2°55.959 127.2 -999 345 -999
2009-07-10 06:41:50 51°13.662 2°55.959 127.1 -999 309 -999
2009-07-10 06:41:55 51°13.662 2°55.959 127.1 -999 255 -999
2009-07-10 06:42:00 51°13.662 2°55.959 127.1 -999 196 -999
2009-07-10 06:42:05 51°13.662 2°55.959 127.1 0.1 199 -999
2009-07-10 06:42:10 51°13.662 2°55.959 127.1 0.1 176 -999
2009-07-10 06:42:15 51°13.662 2°55.959 127 -999 128 -999
2009-07-10 06:42:20 51°13.662 2°55.959 127 0.1 137 -999
2009-07-10 06:42:25 51°13.662 2°55.959 127 0.1 119 -999
2009-07-10 06:42:30 51°13.662 2°55.959 127 -999 54 -999
2009-07-10 06:42:35 51°13.662 2°55.959 127.1 -999 92 -999
2009-07-10 06:42:40 51°13.662 2°55.959 127.2 -999 6 -999
2009-07-10 06:42:45 51°13.662 2°55.959 127.3 -999 338 -999
2009-07-10 06:42:50 51°13.662 2°55.959 127.5 0.1 198 -999
2009-07-10 06:42:55 51°13.662 2°55.959 127.6 0.1 198 -999
2009-07-10 06:43:00 51°13.662 2°55.959 127.7 -999 16 -999
2009-07-10 06:43:05 51°13.662 2°55.959 127.7 -999 274 -999
2009-07-10 06:43:10 51°13.662 2°55.959 127.7 -999 14 -999
2009-07-10 06:43:15 51°13.662 2°55.959 127.7 -999 6 -999
2009-07-10 06:43:20 51°13.662 2°55.959 127.7 -999 85 -999
2009-07-10 06:43:25 51°13.662 2°55.959 127.7 0.1 183 -999
2009-07-10 06:43:30 51°13.662 2°55.959 127.7 -999 101 -999
2009-07-10 06:43:35 51°13.662 2°55.959 127.7 0.1 73 -999
2009-07-10 06:43:40 51°13.662 2°55.959 127.6 -999 33 -999
2009-07-10 06:43:45 51°13.662 2°55.959 127.5 -999 174 -999
2009-07-10 06:43:50 51°13.663 2°55.959 127.5 0.1 166 -999
2009-07-10 06:43:56 51°13.663 2°55.959 127.5 -999 111 -999
2009-07-10 06:44:01 51°13.662 2°55.959 127.4 -999 171 -999
2009-07-10 06:44:06 51°13.663 2°55.959 127.4 -999 125 -999
2009-07-10 06:44:11 51°13.663 2°55.959 127.4 -999 157 -999
2009-07-10 06:44:16 51°13.663 2°55.959 127.4 -999 62 -999
2009-07-10 06:44:21 51°13.663 2°55.959 127.4 -999 86 -999
2009-07-10 06:44:26 51°13.663 2°55.959 127.3 -999 130 -999
2009-07-10 06:44:31 51°13.662 2°55.958 127.2 -999 66 -999
2009-07-10 06:44:36 51°13.662 2°55.958 127.2 -999 203 -999
2009-07-10 06:44:41 51°13.662 2°55.957 127.2 -999 31 -999
2009-07-10 06:44:46 51°13.661 2°55.957 127.2 -999 239 -999
2009-07-10 06:44:51 51°13.661 2°55.957 127.2 -999 189 -999
2009-07-10 06:44:56 51°13.661 2°55.957 127.1 -999 272 -999
2009-07-10 06:45:01 51°13.661 2°55.957 127.1 -999 65 -999
2009-07-10 06:45:06 51°13.662 2°55.957 127 -999 77 -999
2009-07-10 06:45:11 51°13.662 2°55.958 126.9 0.1 38 -999
2009-07-10 06:45:16 51°13.662 2°55.958 127.1 -999 212 -999
2009-07-10 06:45:21 51°13.662 2°55.958 127.5 -999 63 -999
2009-07-10 06:45:26 51°13.662 2°55.958 127.8 -999 122 -999
2009-07-10 06:45:31 51°13.662 2°55.958 128 0.1 222 -999
2009-07-10 06:45:36 51°13.662 2°55.958 128.1 0.1 329 -999
2009-07-10 06:45:41 51°13.662 2°55.958 128 -999 334 -999
2009-07-10 06:45:46 51°13.662 2°55.958 127.9 -999 137 -999
2009-07-10 06:45:51 51°13.662 2°55.959 127.7 -999 132 -999
2009-07-10 06:45:56 51°13.662 2°55.958 127.4 0.1 189 -999
2009-07-10 06:46:01 51°13.662 2°55.958 127.2 -999 68 -999
2009-07-10 06:46:06 51°13.662 2°55.958 127.1 -999 216 -999
2009-07-10 06:46:11 51°13.663 2°55.958 127.1 -999 174 -999
2009-07-10 06:46:16 51°13.663 2°55.958 127 -999 287 -999
2009-07-10 06:46:21 51°13.663 2°55.958 127 -999 136 -999
2009-07-10 06:46:26 51°13.663 2°55.958 127 -999 351 -999
2009-07-10 06:46:31 51°13.663 2°55.958 127 0.1 8 -999
2009-07-10 06:46:36 51°13.662 2°55.958 127.2 -999 237 -999
2009-07-10 06:46:41 51°13.663 2°55.958 127.3 0.1 359 -999
2009-07-10 06:46:46 51°13.662 2°55.958 127.5 -999 251 -999
2009-07-10 06:46:51 51°13.663 2°55.958 127.7 -999 124 -999
2009-07-10 06:46:56 51°13.663 2°55.958 127.7 0.1 350 -999
2009-07-10 06:47:01 51°13.663 2°55.958 127.7 -999 192 -999
2009-07-10 06:47:06 51°13.663 2°55.958 127.7 -999 32 -999
2009-07-10 06:47:11 51°13.662 2°55.958 127.7 0.1 190 -999
2009-07-10 06:47:16 51°13.662 2°55.958 127.6 0.1 160 -999
2009-07-10 06:47:21 51°13.663 2°55.958 127.4 -999 153 -999
2009-07-10 06:47:26 51°13.663 2°55.958 127.1 -999 67 -999
2009-07-10 06:47:31 51°13.663 2°55.958 127 0.1 29 -999
2009-07-10 06:47:36 51°13.663 2°55.959 126.9 -999 63 -999
2009-07-10 06:47:41 51°13.663 2°55.959 126.8 -999 181 -999
2009-07-10 06:47:46 51°13.663 2°55.959 126.8 -999 179 -999
2009-07-10 06:47:51 51°13.663 2°55.959 126.9 -999 141 -999
2009-07-10 06:47:56 51°13.663 2°55.959 126.9 -999 51 -999
2009-07-10 06:48:01 51°13.663 2°55.959 127 -999 -999 -999
2009-07-10 06:48:06 51°13.663 2°55.959 127.1 0.1 6 -999
2009-07-10 06:48:11 51°13.663 2°55.959 127.3 -999 238 -999
2009-07-10 06:48:16 51°13.664 2°55.959 127.5 0.1 335 -999
2009-07-10 06:48:21 51°13.664 2°55.959 127.7 -999 335 -999
2009-07-10 06:48:26 51°13.664 2°55.959 127.8 0.1 6 -999
2009-07-10 06:48:31 51°13.664 2°55.959 127.8 -999 191 -999
2009-07-10 06:48:36 51°13.664 2°55.959 127.9 -999 179 -999
2009-07-10 06:48:41 51°13.663 2°55.959 127.8 -999 80 -999
2009-07-10 06:48:46 51°13.663 2°55.959 127.8 -999 100 -999
2009-07-10 06:48:51 51°13.663 2°55.959 127.6 -999 223 -999
2009-07-10 06:48:56 51°13.663 2°55.959 127.5 -999 171 -999
2009-07-10 06:49:01 51°13.663 2°55.959 127.4 -999 184 -999
2009-07-10 06:49:06 51°13.663 2°55.959 127.4 -999 37 -999
2009-07-10 06:49:11 51°13.663 2°55.959 127.4 -999 215 -999
2009-07-10 06:49:16 51°13.663 2°55.959 127.5 -999 23 -999
2009-07-10 06:49:21 51°13.663 2°55.959 127.6 -999 172 -999
2009-07-10 06:49:26 51°13.663 2°55.959 127.8 -999 227 -999
2009-07-10 06:49:31 51°13.663 2°55.959 127.8 -999 15 -999
2009-07-10 06:49:36 51°13.663 2°55.959 127.8 -999 180 -999
2009-07-10 06:49:41 51°13.663 2°55.959 127.8 0.1 210 -999
2009-07-10 06:49:46 51°13.663 2°55.959 127.8 -999 203 -999
2009-07-10 06:49:51 51°13.663 2°55.959 127.8 0.1 195 -999
2009-07-10 06:49:56 51°13.663 2°55.959 127.7 -999 213 -999
2009-07-10 06:50:01 51°13.663 2°55.959 127.7 -999 28 -999
2009-07-10 06:50:06 51°13.663 2°55.959 127.6 -999 41 -999
2009-07-10 06:50:11 51°13.663 2°55.959 127.6 -999 87 -999
2009-07-10 06:50:16 51°13.663 2°55.959 127.4 -999 64 -999
2009-07-10 06:50:21 51°13.663 2°55.959 127.4 -999 343 -999
2009-07-10 06:50:26 51°13.663 2°55.959 127.4 -999 16 -999
2009-07-10 06:50:31 51°13.663 2°55.959 127.4 0.1 227 -999
2009-07-10 06:50:36 51°13.663 2°55.958 127.5 -999 210 -999
2009-07-10 06:50:41 51°13.663 2°55.958 127.8 0.1 212 -999
2009-07-10 06:50:46 51°13.663 2°55.958 127.8 -999 251 -999
2009-07-10 06:50:51 51°13.663 2°55.958 127.8 -999 51 -999
2009-07-10 06:50:56 51°13.663 2°55.958 127.8 -999 44 -999
2009-07-10 06:51:01 51°13.663 2°55.958 127.8 0.1 47 -999
2009-07-10 06:51:06 51°13.663 2°55.958 127.8 -999 181 -999
2009-07-10 06:51:11 51°13.663 2°55.958 127.8 -999 216 -999
2009-07-10 06:51:16 51°13.663 2°55.958 127.8 -999 107 -999
2009-07-10 06:51:21 51°13.663 2°55.958 127.8 -999 225 -999
2009-07-10 06:51:26 51°13.663 2°55.958 127.7 -999 87 -999
2009-07-10 06:51:31 51°13.663 2°55.958 127.7 -999 25 -999
2009-07-10 06:51:36 51°13.663 2°55.958 127.7 -999 1 -999
2009-07-10 06:51:41 51°13.663 2°55.958 127.7 -999 242 -999
2009-07-10 06:51:46 51°13.663 2°55.958 127.8 -999 281 -999
2009-07-10 06:51:51 51°13.663 2°55.958 127.8 0.1 23 -999
2009-07-10 06:51:56 51°13.663 2°55.958 127.8 -999 207 -999
2009-07-10 06:52:01 51°13.663 2°55.958 127.8 -999 51 -999
2009-07-10 06:52:06 51°13.663 2°55.958 127.8 -999 142 -999
2009-07-10 06:52:11 51°13.663 2°55.958 127.8 -999 220 -999
2009-07-10 06:52:16 51°13.663 2°55.958 127.7 -999 155 -999
2009-07-10 06:52:21 51°13.663 2°55.958 127.7 -999 152 -999
2009-07-10 06:52:26 51°13.663 2°55.958 127.6 0.1 80 -999
2009-07-10 06:52:31 51°13.663 2°55.958 127.5 -999 104 -999
2009-07-10 06:52:36 51°13.663 2°55.958 127.3 -999 161 -999
2009-07-10 06:52:41 51°13.663 2°55.959 127.3 -999 196 -999
2009-07-10 06:52:46 51°13.663 2°55.958 127.3 0.1 224 -999
2009-07-10 06:52:51 51°13.663 2°55.959 127.3 -999 285 -999
2009-07-10 06:52:56 51°13.663 2°55.959 127.3 0.1 219 -999
2009-07-10 06:53:01 51°13.663 2°55.959 127.3 -999 175 -999
2009-07-10 06:53:06 51°13.663 2°55.959 127.3 -999 34 -999
2009-07-10 06:53:11 51°13.663 2°55.959 127.2 -999 10 -999
2009-07-10 06:53:16 51°13.664 2°55.959 127.2 0.1 30 -999
2009-07-10 06:53:21 51°13.664 2°55.959 127.2 -999 216 -999
2009-07-10 06:53:26 51°13.664 2°55.959 127.2 -999 79 -999
2009-07-10 06:53:31 51°13.664 2°55.959 127.3 -999 9 -999
2009-07-10 06:53:36 51°13.664 2°55.959 127.4 -999 53 -999
2009-07-10 06:53:41 51°13.664 2°55.959 127.5 -999 142 -999
2009-07-10 06:53:46 51°13.664 2°55.959 127.5 0.1 133 -999
2009-07-10 06:53:51 51°13.664 2°55.96 127.6 -999 146 -999
2009-07-10 06:53:56 51°13.664 2°55.96 127.6 0.1 35 -999
2009-07-10 06:54:01 51°13.664 2°55.959 127.6 -999 242 -999
2009-07-10 06:54:06 51°13.664 2°55.959 127.6 -999 302 -999
2009-07-10 06:54:11 51°13.664 2°55.959 127.5 -999 272 -999
2009-07-10 06:54:16 51°13.664 2°55.96 127.4 -999 38 -999
2009-07-10 06:54:21 51°13.664 2°55.96 127.4 -999 6 -999
2009-07-10 06:54:26 51°13.664 2°55.96 127.4 -999 256 -999
2009-07-10 06:54:31 51°13.664 2°55.96 127.6 -999 13 -999
2009-07-10 06:54:36 51°13.663 2°55.96 127.6 -999 197 -999
2009-07-10 06:54:41 51°13.664 2°55.96 127.7 -999 48 -999
2009-07-10 06:54:46 51°13.663 2°55.96 127.7 -999 34 -999
2009-07-10 06:54:51 51°13.663 2°55.96 127.7 -999 29 -999
2009-07-10 06:54:56 51°13.663 2°55.96 127.6 -999 69 -999
2009-07-10 06:55:01 51°13.663 2°55.96 127.5 -999 28 -999
2009-07-10 06:55:06 51°13.664 2°55.96 127.4 -999 304 -999
2009-07-10 06:55:11 51°13.663 2°55.96 127.4 0.1 208 -999
2009-07-10 06:55:16 51°13.663 2°55.96 127.4 -999 5 -999
2009-07-10 06:55:21 51°13.663 2°55.96 127.5 -999 293 -999
2009-07-10 06:55:26 51°13.663 2°55.96 127.6 -999 9 -999
2009-07-10 06:55:31 51°13.664 2°55.96 127.7 -999 358 -999
2009-07-10 06:55:36 51°13.663 2°55.96 127.8 -999 147 -999
2009-07-10 06:55:41 51°13.664 2°55.96 127.8 -999 21 -999
2009-07-10 06:55:46 51°13.664 2°55.96 127.8 -999 22 -999
2009-07-10 06:55:51 51°13.663 2°55.96 127.7 -999 196 -999
2009-07-10 06:55:56 51°13.663 2°55.96 127.7 -999 195 -999
2009-07-10 06:56:01 51°13.663 2°55.96 127.6 -999 141 -999
2009-07-10 06:56:06 51°13.663 2°55.96 127.6 -999 87 -999
2009-07-10 06:56:11 51°13.664 2°55.96 127.6 -999 121 -999
2009-07-10 06:56:16 51°13.664 2°55.959 127.7 -999 86 -999
2009-07-10 06:56:21 51°13.664 2°55.959 127.7 -999 275 -999
2009-07-10 06:56:26 51°13.664 2°55.959 127.6 -999 71 -999
2009-07-10 06:56:31 51°13.664 2°55.959 127.5 -999 251 -999
2009-07-10 06:56:36 51°13.664 2°55.959 127.5 -999 14 -999
2009-07-10 06:56:41 51°13.664 2°55.959 127.5 -999 339 -999
2009-07-10 06:56:46 51°13.665 2°55.959 127.5 -999 294 -999
2009-07-10 06:56:51 51°13.665 2°55.96 127.4 0.1 11 -999
2009-07-10 06:56:56 51°13.665 2°55.96 127.2 -999 233 -999
2009-07-10 06:57:01 51°13.665 2°55.96 127.2 -999 195 -999
2009-07-10 06:57:06 51°13.665 2°55.96 127.2 -999 160 -999
2009-07-10 06:57:11 51°13.665 2°55.96 127.2 -999 100 -999
2009-07-10 06:57:16 51°13.665 2°55.96 127.3 -999 88 -999
2009-07-10 06:57:21 51°13.665 2°55.96 127.3 -999 334 -999
2009-07-10 06:57:26 51°13.665 2°55.96 127.3 0.1 23 -999
2009-07-10 06:57:31 51°13.665 2°55.96 127.3 -999 217 -999
2009-07-10 06:57:36 51°13.665 2°55.96 127.3 -999 147 -999
2009-07-10 06:57:41 51°13.665 2°55.96 127.5 -999 207 -999
2009-07-10 06:57:46 51°13.665 2°55.96 127.6 -999 220 -999
2009-07-10 06:57:51 51°13.665 2°55.96 127.6 -999 206 -999
2009-07-10 06:57:56 51°13.665 2°55.96 127.6 -999 172 -999
2009-07-10 06:58:01 51°13.665 2°55.96 127.6 -999 162 -999
2009-07-10 06:58:06 51°13.665 2°55.96 127.5 -999 89 -999
2009-07-10 06:58:11 51°13.665 2°55.96 127.4 -999 36 -999
2009-07-10 06:58:16 51°13.665 2°55.96 127.4 -999 10 -999
2009-07-10 06:58:21 51°13.665 2°55.96 127.5 -999 320 -999
2009-07-10 06:58:26 51°13.665 2°55.96 127.6 -999 351 -999
2009-07-10 06:58:31 51°13.665 2°55.96 127.6 -999 310 -999
2009-07-10 06:58:36 51°13.665 2°55.96 127.7 -999 29 -999
2009-07-10 06:58:41 51°13.665 2°55.96 127.7 -999 51 -999
2009-07-10 06:58:46 51°13.665 2°55.96 127.7 -999 33 -999
2009-07-10 06:58:51 51°13.665 2°55.96 127.7 -999 222 -999
2009-07-10 06:58:56 51°13.665 2°55.96 127.7 -999 258 -999
2009-07-10 06:59:01 51°13.665 2°55.96 127.7 -999 357 -999
2009-07-10 06:59:06 51°13.665 2°55.959 127.6 -999 50 -999
2009-07-10 06:59:10 51°13.665 2°55.959 127.6 -999 211 5.3
2009-07-10 06:59:16 51°13.665 2°55.959 127.6 -999 167 -999
2009-07-10 06:59:21 51°13.665 2°55.959 127.4 0.1 143 -999
2009-07-10 06:59:25 51°13.665 2°55.959 127.3 -999 90 5.5
2009-07-10 06:59:30 51°13.664 2°55.959 127.1 -999 105 -999
2009-07-10 06:59:36 51°13.664 2°55.959 127 -999 2 5.2
2009-07-10 06:59:41 51°13.664 2°55.959 126.7 0.1 295 5.3
2009-07-10 06:59:45 51°13.664 2°55.959 126.4 0.1 293 5.2
2009-07-10 06:59:50 51°13.664 2°55.959 126.2 -999 316 5.2
2009-07-10 06:59:55 51°13.664 2°55.959 126.2 0.1 210 5.2
2009-07-10 07:00:01 51°13.664 2°55.959 126.1 -999 203 -999
2009-07-10 07:00:05 51°13.664 2°55.959 126.1 0.1 246 5.5
2009-07-10 07:00:10 51°13.664 2°55.959 126 -999 349 -999
2009-07-10 07:00:15 51°13.664 2°55.959 126 -999 247 5.2
2009-07-10 07:00:20 51°13.664 2°55.959 125.8 0.1 57 5.2
2009-07-10 07:00:25 51°13.664 2°55.959 125.6 -999 8 -999
2009-07-10 07:00:30 51°13.664 2°55.959 125.3 -999 117 5.2
2009-07-10 07:00:35 51°13.664 2°55.959 125.2 -999 104 -999
2009-07-10 07:00:40 51°13.664 2°55.959 125.2 -999 169 -999
2009-07-10 07:00:45 51°13.664 2°55.959 125.1 -999 123 5.4
2009-07-10 07:00:50 51°13.664 2°55.959 125.2 -999 154 5.3
2009-07-10 07:00:55 51°13.664 2°55.959 125.4 0.1 151 5.2
2009-07-10 07:01:00 51°13.664 2°55.959 125.7 -999 116 5.3
2009-07-10 07:01:05 51°13.664 2°55.959 125.9 -999 260 5.4
2009-07-10 07:01:10 51°13.663 2°55.959 126.3 0.1 28 5.4
2009-07-10 07:01:16 51°13.663 2°55.959 126.6 -999 337 -999
2009-07-10 07:01:20 51°13.663 2°55.959 126.6 -999 52 5.3
2009-07-10 07:01:25 51°13.664 2°55.959 126.4 -999 21 -999
2009-07-10 07:01:30 51°13.664 2°55.959 126.2 -999 12 5.3
2009-07-10 07:01:35 51°13.664 2°55.959 126.1 -999 281 5.3
2009-07-10 07:01:40 51°13.664 2°55.959 125.9 -999 352 5.5
2009-07-10 07:01:45 51°13.664 2°55.959 125.7 -999 322 5.3
2009-07-10 07:01:50 51°13.664 2°55.959 125.6 -999 85 -999
2009-07-10 07:01:55 51°13.664 2°55.959 125.5 -999 190 -999
2009-07-10 07:02:01 51°13.664 2°55.959 125.5 -999 123 5.2
2009-07-10 07:02:05 51°13.664 2°55.959 125.5 -999 105 -999
2009-07-10 07:02:10 51°13.664 2°55.959 125.6 -999 100 5.2
2009-07-10 07:02:15 51°13.664 2°55.959 125.8 0.1 185 5.2
2009-07-10 07:02:21 51°13.664 2°55.959 126.2 -999 61 -999
2009-07-10 07:02:25 51°13.664 2°55.959 126.5 -999 282 -999
2009-07-10 07:02:30 51°13.664 2°55.959 126.5 -999 289 5.2
2009-07-10 07:02:35 51°13.664 2°55.959 126.4 -999 349 -999
2009-07-10 07:02:41 51°13.664 2°55.959 126.4 -999 69 5.2
2009-07-10 07:02:45 51°13.663 2°55.959 126.3 -999 37 -999
2009-07-10 07:02:50 51°13.663 2°55.959 126.2 -999 190 5.2
2009-07-10 07:02:55 51°13.663 2°55.959 126.1 -999 183 5.2
2009-07-10 07:03:00 51°13.663 2°55.959 126.1 0.1 193 5.2
2009-07-10 07:03:05 51°13.663 2°55.959 126.1 -999 212 5.3
2009-07-10 07:03:10 51°13.663 2°55.959 126.1 -999 180 5.2
2009-07-10 07:03:15 51°13.663 2°55.959 126.1 -999 178 5.2
2009-07-10 07:03:21 51°13.663 2°55.959 126.2 -999 47 5.3
2009-07-10 07:03:25 51°13.663 2°55.959 126.2 -999 18 5.2
2009-07-10 07:03:30 51°13.663 2°55.959 126.2 -999 113 5.2
2009-07-10 07:03:35 51°13.663 2°55.959 126.2 -999 328 5.2
2009-07-10 07:03:41 51°13.663 2°55.959 126.2 -999 133 5.4
2009-07-10 07:03:45 51°13.663 2°55.959 126.2 -999 121 5.6
2009-07-10 07:03:50 51°13.663 2°55.959 126.2 -999 167 -999
2009-07-10 07:03:56 51°13.663 2°55.959 126.2 -999 347 5.3
2009-07-10 07:04:01 51°13.663 2°55.959 126.3 -999 15 -999
2009-07-10 07:04:05 51°13.663 2°55.959 126.3 -999 47 5.2
2009-07-10 07:04:10 51°13.663 2°55.959 126.3 0.1 12 5.2
2009-07-10 07:04:15 51°13.663 2°55.959 126.1 -999 270 5.2
2009-07-10 07:04:20 51°13.663 2°55.959 126 -999 90 -999
2009-07-10 07:04:25 51°13.663 2°55.959 125.9 -999 152 5.3
2009-07-10 07:04:30 51°13.663 2°55.959 125.9 -999 86 5.2
2009-07-10 07:04:35 51°13.663 2°55.959 125.9 0.1 135 5.2
2009-07-10 07:04:41 51°13.663 2°55.959 125.9 0.1 124 5.2
2009-07-10 07:04:45 51°13.663 2°55.959 126 -999 166 5.3
2009-07-10 07:04:50 51°13.663 2°55.959 126.2 -999 84 -999
2009-07-10 07:04:55 51°13.663 2°55.959 126.4 -999 222 5.2
2009-07-10 07:05:00 51°13.663 2°55.96 126.5 -999 52 5.2
2009-07-10 07:05:05 51°13.663 2°55.96 126.5 -999 249 5.2
2009-07-10 07:05:10 51°13.663 2°55.96 126.4 -999 22 5.3
2009-07-10 07:05:15 51°13.663 2°55.96 126.4 -999 334 5.2
2009-07-10 07:05:20 51°13.663 2°55.96 126.3 -999 218 5.2
2009-07-10 07:05:25 51°13.663 2°55.96 126.3 -999 88 5.6
2009-07-10 07:05:30 51°13.662 2°55.96 126.3 -999 160 5.7
2009-07-10 07:05:35 51°13.662 2°55.96 126.2 -999 194 -999
2009-07-10 07:05:40 51°13.662 2°55.96 126.2 -999 165 -999
2009-07-10 07:05:45 51°13.662 2°55.96 126.2 -999 84 5.2
2009-07-10 07:05:50 51°13.662 2°55.96 126.3 -999 332 5.2
2009-07-10 07:05:55 51°13.662 2°55.96 126.3 -999 31 5.2
2009-07-10 07:06:00 51°13.662 2°55.96 126.3 -999 160 5.2
2009-07-10 07:06:05 51°13.662 2°55.96 126.3 -999 92 -999
2009-07-10 07:06:10 51°13.662 2°55.96 126.3 -999 11 5.2
2009-07-10 07:06:15 51°13.662 2°55.96 126.3 -999 187 5.3
2009-07-10 07:06:20 51°13.662 2°55.96 126.3 -999 178 5.2
2009-07-10 07:06:25 51°13.662 2°55.96 126.3 -999 266 5.2
2009-07-10 07:06:30 51°13.662 2°55.96 126.3 -999 350 5.2
2009-07-10 07:06:35 51°13.662 2°55.96 126.3 -999 78 5.3
2009-07-10 07:06:40 51°13.662 2°55.96 126.3 -999 351 5.2
2009-07-10 07:06:45 51°13.662 2°55.96 126.3 0.1 25 5.2
2009-07-10 07:06:50 51°13.662 2°55.96 126.3 -999 2 -999
2009-07-10 07:06:55 51°13.662 2°55.96 126.3 -999 29 5.2
2009-07-10 07:07:00 51°13.662 2°55.96 126.3 -999 327 5.2
2009-07-10 07:07:05 51°13.662 2°55.96 126.2 -999 143 -999
2009-07-10 07:07:10 51°13.662 2°55.96 126.2 -999 137 -999
2009-07-10 07:07:15 51°13.662 2°55.959 126.2 -999 159 5.2
2009-07-10 07:07:20 51°13.662 2°55.959 126.3 -999 28 -999
2009-07-10 07:07:25 51°13.662 2°55.959 126.3 -999 254 5.2
2009-07-10 07:07:30 51°13.662 2°55.959 126.3 -999 301 5.2
2009-07-10 07:07:35 51°13.662 2°55.959 126.3 -999 43 5.2
2009-07-10 07:07:40 51°13.662 2°55.959 126.3 0.1 24 5.2
2009-07-10 07:07:45 51°13.662 2°55.959 126.3 -999 305 5.2
2009-07-10 07:07:49 51°13.662 2°55.959 126.3 -999 30 -999
2009-07-10 07:07:54 51°13.662 2°55.959 126.4 -999 354 5.2
2009-07-10 07:07:59 51°13.662 2°55.959 126.4 -999 355 5.3
2009-07-10 07:08:04 51°13.663 2°55.959 126.4 -999 357 5.3
2009-07-10 07:08:09 51°13.663 2°55.959 126.2 0.1 12 5.1
2009-07-10 07:08:14 51°13.663 2°55.959 126.2 -999 358 5.2
2009-07-10 07:08:19 51°13.663 2°55.959 126.2 -999 37 5.1
2009-07-10 07:08:24 51°13.663 2°55.959 126.2 -999 15 5.2
2009-07-10 07:08:29 51°13.662 2°55.959 126.1 0.1 224 5.3
2009-07-10 07:08:34 51°13.663 2°55.959 126.1 -999 252 -999
2009-07-10 07:08:38 51°13.663 2°55.959 126.2 -999 14 5.2
2009-07-10 07:08:43 51°13.663 2°55.959 126.3 -999 173 5.2
2009-07-10 07:08:49 51°13.663 2°55.959 126.3 0.1 185 4.8
2009-07-10 07:08:54 51°13.663 2°55.959 126.3 -999 277 -999
2009-07-10 07:08:59 51°13.663 2°55.959 126.2 -999 331 5.1
2009-07-10 07:09:04 51°13.663 2°55.959 126.2 -999 32 5.2
2009-07-10 07:09:09 51°13.663 2°55.96 126 -999 131 5.1
2009-07-10 07:09:14 51°13.663 2°55.96 126 -999 110 5.1
2009-07-10 07:09:19 51°13.663 2°55.959 125.9 -999 228 5.1
2009-07-10 07:09:24 51°13.663 2°55.96 126 0.1 138 5.1
2009-07-10 07:09:29 51°13.663 2°55.96 126.1 -999 167 5.2
2009-07-10 07:09:33 51°13.663 2°55.959 126.2 -999 56 5.1
2009-07-10 07:09:38 51°13.663 2°55.959 126.2 -999 337 5.3
2009-07-10 07:09:43 51°13.663 2°55.959 126.3 -999 322 5.2
2009-07-10 07:09:48 51°13.663 2°55.959 126.3 -999 70 5.2
2009-07-10 07:09:53 51°13.663 2°55.959 126.3 -999 132 5.1
2009-07-10 07:09:58 51°13.663 2°55.96 126.3 -999 92 5.2
2009-07-10 07:10:03 51°13.663 2°55.959 126.3 -999 321 5.2
2009-07-10 07:10:08 51°13.663 2°55.96 126.3 -999 310 5.2
2009-07-10 07:10:13 51°13.663 2°55.959 126.4 -999 209 5.2
2009-07-10 07:10:18 51°13.663 2°55.96 126.4 0.1 350 5.2
2009-07-10 07:10:23 51°13.663 2°55.96 126.4 -999 259 -999
2009-07-10 07:10:29 51°13.663 2°55.96 126.4 -999 338 5.2
2009-07-10 07:10:33 51°13.663 2°55.96 126.2 -999 320 5.1
2009-07-10 07:10:38 51°13.663 2°55.96 126.1 -999 7 5.2
2009-07-10 07:10:44 51°13.662 2°55.96 126.2 -999 202 -999
2009-07-10 07:10:49 51°13.663 2°55.96 126.2 -999 56 5.3
2009-07-10 07:10:54 51°13.662 2°55.96 126.2 -999 129 5.2
2009-07-10 07:10:59 51°13.662 2°55.96 126.2 -999 81 -999
2009-07-10 07:11:04 51°13.662 2°55.96 126.2 -999 114 5.2
2009-07-10 07:11:09 51°13.662 2°55.96 126.3 -999 156 5.2
2009-07-10 07:11:14 51°13.662 2°55.96 126.3 -999 22 5.1
2009-07-10 07:11:19 51°13.662 2°55.961 126.3 -999 2 -999
2009-07-10 07:11:24 51°13.662 2°55.961 126.3 -999 93 5.1
2009-07-10 07:11:29 51°13.662 2°55.961 126.3 -999 33 -999
2009-07-10 07:11:34 51°13.662 2°55.961 126.3 -999 292 -999
2009-07-10 07:11:40 51°13.662 2°55.961 126.3 -999 17 5.1
2009-07-10 07:11:45 51°13.662 2°55.961 126.3 -999 200 -999
2009-07-10 07:11:50 51°13.662 2°55.961 126.3 -999 166 5.2
2009-07-10 07:11:55 51°13.662 2°55.961 126.3 -999 20 5.2
2009-07-10 07:12:00 51°13.662 2°55.961 126.3 0.1 320 5.1
2009-07-10 07:12:05 51°13.662 2°55.961 126.3 -999 7 5.4
2009-07-10 07:12:10 51°13.662 2°55.961 126.3 -999 129 5.1
2009-07-10 07:12:15 51°13.662 2°55.961 126.1 -999 160 -999
2009-07-10 07:12:20 51°13.662 2°55.961 126.1 -999 203 5.1
2009-07-10 07:12:25 51°13.662 2°55.961 126.1 -999 227 5.2
2009-07-10 07:12:30 51°13.662 2°55.961 126.1 -999 284 5.1
2009-07-10 07:12:35 51°13.662 2°55.961 126.1 -999 224 5.1
2009-07-10 07:12:40 51°13.662 2°55.961 126.3 -999 100 5.1
2009-07-10 07:12:45 51°13.662 2°55.961 126.3 -999 129 5.1
2009-07-10 07:12:50 51°13.662 2°55.96 126.3 -999 229 5.1
2009-07-10 07:12:55 51°13.662 2°55.96 126.2 -999 287 5.1
2009-07-10 07:13:00 51°13.662 2°55.96 126.1 -999 349 5.1
2009-07-10 07:13:04 51°13.662 2°55.96 126 -999 321 5.1
2009-07-10 07:13:09 51°13.662 2°55.96 125.9 -999 9 5.1
2009-07-10 07:13:14 51°13.662 2°55.96 125.7 -999 149 5.3
2009-07-10 07:13:19 51°13.662 2°55.96 125.7 -999 272 5.5
2009-07-10 07:13:24 51°13.662 2°55.96 125.7 -999 143 5.1
2009-07-10 07:13:29 51°13.662 2°55.96 125.7 -999 76 5.1
2009-07-10 07:13:34 51°13.662 2°55.96 125.8 -999 111 -999
2009-07-10 07:13:39 51°13.662 2°55.96 126 -999 16 5.1
2009-07-10 07:13:44 51°13.663 2°55.959 126.2 -999 296 5.1
2009-07-10 07:13:49 51°13.663 2°55.959 126.2 -999 19 5.2
2009-07-10 07:13:53 51°13.663 2°55.959 126.2 -999 4 5.1
2009-07-10 07:13:58 51°13.663 2°55.959 126.2 -999 307 5.1
2009-07-10 07:14:03 51°13.663 2°55.959 126 -999 338 5.1
2009-07-10 07:14:08 51°13.663 2°55.959 126 -999 349 5.1
2009-07-10 07:14:13 51°13.663 2°55.959 125.9 -999 95 5.2
2009-07-10 07:14:18 51°13.663 2°55.959 125.9 0.1 176 5.2
2009-07-10 07:14:23 51°13.663 2°55.959 125.7 -999 209 5.2
2009-07-10 07:14:28 51°13.663 2°55.959 125.6 -999 186 5.2
2009-07-10 07:14:33 51°13.662 2°55.96 125.6 -999 121 5.1
2009-07-10 07:14:37 51°13.662 2°55.96 125.6 -999 149 5.1
2009-07-10 07:14:42 51°13.662 2°55.96 125.6 0.1 142 5.1
2009-07-10 07:14:47 51°13.662 2°55.96 125.7 0.1 170 5.1
2009-07-10 07:14:52 51°13.662 2°55.96 125.9 0.1 22 5.1
2009-07-10 07:14:57 51°13.662 2°55.96 126.3 0.1 344 5.1
2009-07-10 07:15:02 51°13.662 2°55.96 126.4 -999 3 5.1
2009-07-10 07:15:07 51°13.662 2°55.96 126.2 0.1 337 5.1
2009-07-10 07:15:12 51°13.662 2°55.961 125.9 0.1 14 5.1
2009-07-10 07:15:17 51°13.662 2°55.961 125.7 -999 23 5.5
2009-07-10 07:15:22 51°13.661 2°55.961 125.4 -999 55 -999
2009-07-10 07:15:27 51°13.661 2°55.961 125.1 -999 183 5.1
2009-07-10 07:15:32 51°13.662 2°55.961 125.1 -999 34 5.1
2009-07-10 07:15:37 51°13.662 2°55.961 125.1 -999 219 5.1
2009-07-10 07:15:41 51°13.662 2°55.961 125.5 -999 89 5.6
2009-07-10 07:15:47 51°13.662 2°55.961 125.7 -999 113 5.1
2009-07-10 07:15:51 51°13.662 2°55.961 125.8 0.1 168 5.1
2009-07-10 07:15:57 51°13.662 2°55.961 126 -999 182 5.1
2009-07-10 07:16:02 51°13.662 2°55.961 126.1 -999 341 5.1
2009-07-10 07:16:07 51°13.662 2°55.96 126.1 -999 295 5.1
2009-07-10 07:16:12 51°13.662 2°55.96 126.1 -999 358 5.1
2009-07-10 07:16:17 51°13.662 2°55.96 126.1 -999 10 5.1
2009-07-10 07:16:22 51°13.662 2°55.96 125.8 -999 356 5.1
2009-07-10 07:16:27 51°13.662 2°55.96 125.7 -999 235 5.1
2009-07-10 07:16:32 51°13.662 2°55.96 125.7 -999 72 5.1
2009-07-10 07:16:37 51°13.662 2°55.96 125.7 -999 120 5.1
2009-07-10 07:16:42 51°13.662 2°55.96 125.7 -999 136 5.3
2009-07-10 07:16:47 51°13.662 2°55.96 125.8 -999 43 5.1
2009-07-10 07:16:52 51°13.662 2°55.96 126 -999 198 5.2
2009-07-10 07:16:57 51°13.662 2°55.96 126.2 -999 102 5.3
2009-07-10 07:17:01 51°13.662 2°55.96 126.2 -999 341 5.1
2009-07-10 07:17:07 51°13.662 2°55.96 126.2 -999 202 5.1
2009-07-10 07:17:12 51°13.662 2°55.96 126.1 -999 11 5.1
2009-07-10 07:17:17 51°13.662 2°55.96 126 -999 301 5.1
2009-07-10 07:17:21 51°13.662 2°55.96 125.9 0.1 9 5.1
2009-07-10 07:17:27 51°13.662 2°55.96 125.8 -999 242 5.1
2009-07-10 07:17:32 51°13.663 2°55.96 125.8 0.1 12 5.1
2009-07-10 07:17:37 51°13.662 2°55.96 125.7 0.1 201 5.1
2009-07-10 07:17:42 51°13.662 2°55.96 125.7 -999 109 5.1
2009-07-10 07:17:46 51°13.663 2°55.96 125.7 -999 255 5.1
2009-07-10 07:17:52 51°13.663 2°55.96 125.7 -999 86 5.1
2009-07-10 07:17:57 51°13.663 2°55.96 125.7 -999 325 5.4
2009-07-10 07:18:01 51°13.663 2°55.959 125.7 -999 236 5.1
2009-07-10 07:18:07 51°13.663 2°55.96 125.7 -999 26 5.3
2009-07-10 07:18:12 51°13.663 2°55.96 125.8 -999 174 5.3
2009-07-10 07:18:17 51°13.662 2°55.96 125.8 -999 34 5.1
2009-07-10 07:18:21 51°13.662 2°55.96 125.8 -999 257 5.2
2009-07-10 07:18:26 51°13.662 2°55.96 125.9 -999 39 4.9
2009-07-10 07:18:32 51°13.662 2°55.96 125.9 -999 280 5.2
2009-07-10 07:18:37 51°13.662 2°55.96 125.9 -999 55 5.1
2009-07-10 07:18:42 51°13.662 2°55.96 125.9 -999 236 5.1
2009-07-10 07:18:47 51°13.662 2°55.96 125.9 -999 339 -999
2009-07-10 07:18:52 51°13.662 2°55.96 125.9 -999 135 5.1
2009-07-10 07:18:57 51°13.662 2°55.96 125.9 0.1 34 5.1
2009-07-10 07:19:01 51°13.662 2°55.96 125.9 -999 258 5.1
2009-07-10 07:19:07 51°13.662 2°55.96 125.9 -999 16 5.1
2009-07-10 07:19:11 51°13.662 2°55.96 125.9 -999 160 5.1
2009-07-10 07:19:17 51°13.662 2°55.96 125.9 -999 64 5.2
2009-07-10 07:19:21 51°13.662 2°55.96 125.9 -999 359 5.1
2009-07-10 07:19:26 51°13.662 2°55.96 125.9 -999 33 5.1
2009-07-10 07:19:32 51°13.663 2°55.96 125.9 -999 51 5.1
2009-07-10 07:19:37 51°13.663 2°55.96 125.9 -999 358 5.1
2009-07-10 07:19:41 51°13.662 2°55.96 125.8 -999 125 5.1
2009-07-10 07:19:47 51°13.663 2°55.96 125.8 -999 16 5.1
2009-07-10 07:19:52 51°13.662 2°55.96 125.8 -999 219 5.1
2009-07-10 07:19:57 51°13.662 2°55.96 125.8 0.1 181 5.1
2009-07-10 07:20:01 51°13.662 2°55.96 125.8 0.1 209 5.1
2009-07-10 07:20:07 51°13.662 2°55.96 125.8 -999 343 5.1
2009-07-10 07:20:12 51°13.662 2°55.96 125.9 -999 267 5.1
2009-07-10 07:20:17 51°13.662 2°55.96 125.9 -999 36 5.1
2009-07-10 07:20:21 51°13.662 2°55.96 125.9 -999 190 5.1
2009-07-10 07:20:27 51°13.662 2°55.96 125.8 -999 78 5.1
2009-07-10 07:20:31 51°13.662 2°55.96 125.8 -999 210 5.1
2009-07-10 07:20:37 51°13.662 2°55.96 125.8 -999 25 5.3
2009-07-10 07:20:41 51°13.662 2°55.96 125.8 -999 223 5.1
2009-07-10 07:20:47 51°13.662 2°55.96 125.9 0.1 32 5.1
2009-07-10 07:20:52 51°13.662 2°55.96 125.9 0.1 204 5.1
2009-07-10 07:20:57 51°13.662 2°55.96 125.9 -999 46 -999
2009-07-10 07:21:02 51°13.662 2°55.96 125.9 -999 337 5.1
2009-07-10 07:21:07 51°13.662 2°55.96 125.9 -999 30 -999
2009-07-10 07:21:12 51°13.662 2°55.96 125.9 -999 113 5.1
2009-07-10 07:21:17 51°13.662 2°55.96 125.9 -999 148 5.1
2009-07-10 07:21:22 51°13.662 2°55.96 125.9 -999 25 5
2009-07-10 07:21:27 51°13.662 2°55.96 125.9 -999 352 5.1
2009-07-10 07:21:32 51°13.662 2°55.96 125.9 0.1 3 5.1
2009-07-10 07:21:37 51°13.662 2°55.96 125.9 -999 74 -999
2009-07-10 07:21:42 51°13.662 2°55.96 125.9 -999 55 5.1
2009-07-10 07:21:47 51°13.662 2°55.96 125.7 -999 335 5.1
2009-07-10 07:21:52 51°13.662 2°55.96 125.7 -999 286 5
2009-07-10 07:21:57 51°13.663 2°55.96 125.6 -999 5 5
2009-07-10 07:22:01 51°13.662 2°55.96 125.6 -999 217 5.1
2009-07-10 07:22:07 51°13.663 2°55.96 125.7 0.1 29 5
2009-07-10 07:22:12 51°13.662 2°55.96 125.7 0.1 201 5.3
2009-07-10 07:22:17 51°13.662 2°55.96 125.7 0.1 69 5.1
2009-07-10 07:22:21 51°13.662 2°55.96 125.7 -999 160 5.1
2009-07-10 07:22:27 51°13.663 2°55.96 125.7 0.1 59 5
2009-07-10 07:22:32 51°13.662 2°55.96 125.8 -999 188 5
2009-07-10 07:22:37 51°13.662 2°55.96 125.9 -999 355 5.3
2009-07-10 07:22:42 51°13.663 2°55.96 126 -999 353 5
2009-07-10 07:22:46 51°13.662 2°55.96 126.2 -999 244 5.1
2009-07-10 07:22:52 51°13.663 2°55.96 126.3 0.1 356 5.1
2009-07-10 07:22:57 51°13.662 2°55.96 126.3 0.1 209 5
2009-07-10 07:23:02 51°13.662 2°55.96 126.4 -999 106 5.1
2009-07-10 07:23:07 51°13.662 2°55.96 126.4 -999 190 5.1
2009-07-10 07:23:12 51°13.662 2°55.96 126.4 -999 37 5.3
2009-07-10 07:23:17 51°13.662 2°55.96 126.4 -999 242 5
2009-07-10 07:23:22 51°13.662 2°55.96 126.2 -999 260 5.1
2009-07-10 07:23:27 51°13.662 2°55.96 125.9 -999 308 5
2009-07-10 07:23:32 51°13.663 2°55.96 125.7 -999 254 5.5
2009-07-10 07:23:37 51°13.663 2°55.959 125.6 -999 321 5
2009-07-10 07:23:42 51°13.662 2°55.959 125.5 0.1 205 5.1
2009-07-10 07:23:47 51°13.662 2°55.959 125.3 -999 129 5.1
2009-07-10 07:23:51 51°13.662 2°55.959 125.3 0.1 193 5.1
2009-07-10 07:23:57 51°13.662 2°55.959 125.3 -999 77 5.1
2009-07-10 07:24:01 51°13.662 2°55.959 125.7 -999 144 5.1
2009-07-10 07:24:06 51°13.662 2°55.959 125.7 0.1 10 5.1
2009-07-10 07:24:12 51°13.662 2°55.959 125.7 -999 98 5.4
2009-07-10 07:24:17 51°13.662 2°55.96 125.8 -999 27 5.1
2009-07-10 07:24:22 51°13.662 2°55.959 125.8 -999 267 5
2009-07-10 07:24:26 51°13.662 2°55.959 125.8 -999 11 5.1
2009-07-10 07:24:32 51°13.662 2°55.959 125.8 -999 245 5
2009-07-10 07:24:37 51°13.662 2°55.959 125.8 -999 34 5.1
2009-07-10 07:24:41 51°13.663 2°55.959 125.8 -999 200 5.1
2009-07-10 07:24:47 51°13.663 2°55.959 125.7 -999 29 5
2009-07-10 07:24:51 51°13.663 2°55.959 125.7 -999 165 5
2009-07-10 07:24:57 51°13.663 2°55.959 125.6 -999 65 5.1
2009-07-10 07:25:01 51°13.663 2°55.959 125.6 0.1 174 5
2009-07-10 07:25:07 51°13.662 2°55.96 125.7 0.1 166 5.1
2009-07-10 07:25:11 51°13.662 2°55.96 125.7 -999 197 -999
2009-07-10 07:25:17 51°13.662 2°55.959 125.8 0.1 189 5.1
2009-07-10 07:25:22 51°13.662 2°55.959 125.9 0.1 190 5.1
2009-07-10 07:25:27 51°13.662 2°55.959 125.9 -999 244 5
2009-07-10 07:25:31 51°13.662 2°55.959 125.9 -999 157 5.1
2009-07-10 07:25:37 51°13.662 2°55.959 125.9 -999 42 5.1
2009-07-10 07:25:42 51°13.663 2°55.959 125.9 -999 337 -999
2009-07-10 07:25:47 51°13.663 2°55.959 125.9 -999 284 5.1
2009-07-10 07:25:52 51°13.663 2°55.959 125.9 -999 69 5.1
2009-07-10 07:25:57 51°13.663 2°55.959 125.9 -999 4 5
2009-07-10 07:26:01 51°13.663 2°55.959 125.8 -999 337 5
2009-07-10 07:26:07 51°13.662 2°55.959 125.9 -999 186 5.1
2009-07-10 07:26:12 51°13.662 2°55.96 125.9 0.1 104 5.2
2009-07-10 07:26:17 51°13.662 2°55.96 126 0.1 183 5.1
2009-07-10 07:26:21 51°13.662 2°55.96 126.5 -999 69 4.7
2009-07-10 07:26:27 51°13.662 2°55.96 126.7 -999 285 5.1
2009-07-10 07:26:32 51°13.662 2°55.96 126.7 -999 345 5.1
2009-07-10 07:26:37 51°13.662 2°55.96 126.7 0.1 197 5
2009-07-10 07:26:41 51°13.662 2°55.96 126.7 -999 167 5
2009-07-10 07:26:47 51°13.662 2°55.96 126.9 -999 292 5
2009-07-10 07:26:52 51°13.662 2°55.96 126.9 -999 347 5
2009-07-10 07:26:57 51°13.662 2°55.96 126.8 -999 194 5
2009-07-10 07:27:01 51°13.662 2°55.96 126.8 -999 180 5
2009-07-10 07:27:05 51°13.662 2°55.96 126.7 -999 170 5
2009-07-10 07:27:11 51°13.662 2°55.96 126.7 -999 192 5
2009-07-10 07:27:17 51°13.662 2°55.959 126.6 -999 216 5
2009-07-10 07:27:21 51°13.662 2°55.959 126.5 -999 203 5.1
2009-07-10 07:27:26 51°13.662 2°55.959 126.5 -999 289 5
2009-07-10 07:27:32 51°13.662 2°55.959 126.4 -999 47 5.1
2009-07-10 07:27:37 51°13.662 2°55.959 126.4 -999 167 5.1
2009-07-10 07:27:42 51°13.662 2°55.96 126.1 0.1 160 5.1
2009-07-10 07:27:47 51°13.662 2°55.96 125.9 -999 75 5.1
2009-07-10 07:27:51 51°13.662 2°55.96 126.1 0.1 13 5
2009-07-10 07:27:57 51°13.662 2°55.96 125.9 -999 155 5.3
2009-07-10 07:28:02 51°13.662 2°55.96 125.7 -999 76 -999
2009-07-10 07:28:07 51°13.662 2°55.96 125.7 -999 87 5
2009-07-10 07:28:12 51°13.662 2°55.96 125.7 0.1 19 5.2
2009-07-10 07:28:17 51°13.662 2°55.96 125.7 -999 161 5
2009-07-10 07:28:21 51°13.662 2°55.96 125.7 -999 182 5.2
2009-07-10 07:28:27 51°13.663 2°55.96 126 0.1 16 5.1
2009-07-10 07:28:32 51°13.663 2°55.96 126.2 -999 334 5
2009-07-10 07:28:37 51°13.662 2°55.96 126.2 -999 77 5
2009-07-10 07:28:41 51°13.662 2°55.96 125.9 -999 100 5.1
2009-07-10 07:28:47 51°13.662 2°55.96 125.6 0.1 181 5.1
2009-07-10 07:28:52 51°13.662 2°55.96 125.1 -999 193 5.1
2009-07-10 07:28:57 51°13.662 2°55.96 124.6 -999 232 5.1
2009-07-10 07:29:01 51°13.662 2°55.96 124.1 -999 197 5
2009-07-10 07:29:06 51°13.662 2°55.96 123.6 0.1 194 5
2009-07-10 07:29:12 51°13.662 2°55.96 123.3 0.1 195 5
2009-07-10 07:29:17 51°13.662 2°55.96 122.8 -999 11 5.1
2009-07-10 07:29:21 51°13.662 2°55.96 122.3 0.1 199 5
2009-07-10 07:29:27 51°13.662 2°55.96 121.9 0.1 185 5
2009-07-10 07:29:31 51°13.662 2°55.96 121.4 0.1 183 5
2009-07-10 07:29:37 51°13.662 2°55.96 120.9 0.1 181 5
2009-07-10 07:29:42 51°13.662 2°55.96 120.4 -999 189 5
2009-07-10 07:29:47 51°13.662 2°55.96 119.8 -999 188 5.1
2009-07-10 07:29:51 51°13.662 2°55.96 119.2 0.1 199 5.1
2009-07-10 07:29:57 51°13.662 2°55.959 118.6 -999 216 5.1
2009-07-10 07:30:02 51°13.662 2°55.959 118.1 -999 197 5.1
2009-07-10 07:30:07 51°13.662 2°55.959 117.6 0.1 182 5.1
2009-07-10 07:30:11 51°13.662 2°55.959 116.9 0.1 194 5.1
2009-07-10 07:30:17 51°13.662 2°55.959 116.3 -999 204 5.1
2009-07-10 07:30:21 51°13.662 2°55.959 115.7 0.1 200 5.1
2009-07-10 07:30:26 51°13.661 2°55.959 115 0.1 180 5.1
2009-07-10 07:30:32 51°13.661 2°55.959 114.2 0.1 209 5.1
2009-07-10 07:30:37 51°13.661 2°55.959 113.4 0.1 205 5.1
2009-07-10 07:30:42 51°13.661 2°55.959 112.6 -999 213 5.2
2009-07-10 07:30:46 51°13.661 2°55.959 111.9 0.1 276 5.1
2009-07-10 07:30:52 51°13.661 2°55.958 111.2 0.2 273 5.1
2009-07-10 07:30:57 51°13.662 2°55.957 110.9 0.7 291 5.2
2009-07-10 07:31:01 51°13.662 2°55.955 110.8 1.1 289 5.2
2009-07-10 07:31:07 51°13.663 2°55.951 110.8 1.5 290 5.3
2009-07-10 07:31:12 51°13.664 2°55.947 111.2 1.9 290 5.3
2009-07-10 07:31:17 51°13.665 2°55.943 111.6 2.4 293 -999
2009-07-10 07:31:23 51°13.666 2°55.937 112.1 2.7 292 -999
2009-07-10 07:31:29 51°13.668 2°55.93 112.5 2.9 295 -999
2009-07-10 07:31:34 51°13.67 2°55.923 112.6 3.1 295 -999
2009-07-10 07:31:40 51°13.672 2°55.916 112.5 3.2 294 -999
2009-07-10 07:31:45 51°13.674 2°55.909 112 3.3 293 -999
2009-07-10 07:31:50 51°13.676 2°55.902 111.5 3.3 292 -999
2009-07-10 07:31:55 51°13.678 2°55.895 110.8 3.4 292 -999
2009-07-10 07:32:01 51°13.68 2°55.887 110.2 3.5 290 -999
2009-07-10 07:32:05 51°13.681 2°55.881 109.8 3.7 291 -999
2009-07-10 07:32:10 51°13.683 2°55.873 109.7 3.7 290 -999
2009-07-10 07:32:15 51°13.684 2°55.865 109.6 3.7 289 -999
2009-07-10 07:32:20 51°13.686 2°55.857 109.2 3.8 289 -999
2009-07-10 07:32:25 51°13.688 2°55.849 108.6 3.7 288 -999
2009-07-10 07:32:30 51°13.689 2°55.842 107.9 3.7 287 -999
2009-07-10 07:32:35 51°13.691 2°55.834 107.3 3.6 287 -999
2009-07-10 07:32:40 51°13.692 2°55.827 106.8 3.5 286 -999
2009-07-10 07:32:45 51°13.693 2°55.819 106.3 3.6 286 -999
2009-07-10 07:32:50 51°13.695 2°55.811 105.9 3.7 286 -999
2009-07-10 07:32:55 51°13.696 2°55.803 105.2 3.6 284 -999
2009-07-10 07:33:00 51°13.697 2°55.796 104.7 3.5 286 -999
2009-07-10 07:33:05 51°13.699 2°55.789 104.2 3.3 284 -999
2009-07-10 07:33:10 51°13.7 2°55.782 103.6 3.2 285 -999
2009-07-10 07:33:15 51°13.701 2°55.775 102.8 3 282 -999
2009-07-10 07:33:21 51°13.702 2°55.768 102.1 2.9 283 -999
2009-07-10 07:33:25 51°13.703 2°55.763 101.5 2.5 282 -999
2009-07-10 07:33:30 51°13.703 2°55.759 101 1.7 282 -999
2009-07-10 07:33:35 51°13.704 2°55.757 99.2 0.8 288 -999
2009-07-10 07:33:41 51°13.704 2°55.757 95.2 0.3 335 -999
2009-07-10 07:33:45 51°13.704 2°55.758 89.7 0.5 53 -999
2009-07-10 07:33:50 51°13.705 2°55.759 83.6 0.9 66 -999
2009-07-10 07:33:55 51°13.705 2°55.762 78.2 1 70 -999
2009-07-10 07:34:01 51°13.706 2°55.763 72.6 0.7 56 4.6
2009-07-10 07:34:05 51°13.706 2°55.763 67.1 0.2 160 4.6
2009-07-10 07:34:10 51°13.706 2°55.763 64.6 0.5 233 5
2009-07-10 07:34:14 51°13.705 2°55.761 61 1.1 229 11.7
2009-07-10 07:34:19 51°13.703 2°55.759 57.4 1.7 228 11.7
2009-07-10 07:34:25 51°13.701 2°55.755 55.2 2 225 12.5
2009-07-10 07:34:29 51°13.699 2°55.752 53 2.2 228 11.8
2009-07-10 07:34:34 51°13.697 2°55.748 51.9 2.3 225 -999
2009-07-10 07:34:41 51°13.694 2°55.743 51.4 2 229 -999
2009-07-10 07:34:45 51°13.693 2°55.742 51.6 1.4 228 -999
2009-07-10 07:34:50 51°13.692 2°55.741 52 0.6 211 -999
2009-07-10 07:34:55 51°13.692 2°55.741 49.8 0.3 34 -999
2009-07-10 07:35:00 51°13.693 2°55.742 45.6 1 44 -999
2009-07-10 07:35:05 51°13.695 2°55.744 39.7 1.6 31 -999
2009-07-10 07:35:10 51°13.698 2°55.746 32.8 2 29 -999
2009-07-10 07:35:15 51°13.7 2°55.748 25.6 1.8 23 -999
2009-07-10 07:35:20 51°13.702 2°55.749 19.6 1.3 20 -999
2009-07-10 07:35:25 51°13.703 2°55.75 16.9 0.7 40 -999
2009-07-10 07:35:30 51°13.703 2°55.751 13.9 0.2 65 -999
2009-07-10 07:35:35 51°13.702 2°55.751 11 0.6 144 4.6
2009-07-10 07:35:40 51°13.701 2°55.752 8 0.8 170 4.6
2009-07-10 07:35:45 51°13.7 2°55.752 6.4 0.9 158 -999
2009-07-10 07:35:50 51°13.699 2°55.753 5.7 0.7 161 4.6
2009-07-10 07:35:55 51°13.7 2°55.753 5.9 0.6 45 7.5
2009-07-10 07:36:00 51°13.701 2°55.754 6.5 1.3 6 4.6
2009-07-10 07:36:05 51°13.704 2°55.754 4.2 2 1 -999
2009-07-10 07:36:10 51°13.707 2°55.753 358.6 2.4 353 11.8
2009-07-10 07:36:15 51°13.711 2°55.751 351.3 3 343 4.5
2009-07-10 07:36:20 51°13.715 2°55.749 343.1 3.3 334 4.7
2009-07-10 07:36:25 51°13.719 2°55.744 336.6 3.6 329 11.8
2009-07-10 07:36:29 51°13.723 2°55.74 329.7 4 329 11.7
2009-07-10 07:36:34 51°13.728 2°55.734 327.4 4.5 324 11.7
2009-07-10 07:36:39 51°13.734 2°55.728 325.8 5.1 326 11.7
2009-07-10 07:36:44 51°13.74 2°55.721 325.6 5.5 324 11.5
2009-07-10 07:36:49 51°13.747 2°55.714 325.6 5.9 327 11
2009-07-10 07:36:53 51°13.753 2°55.708 326.6 6.2 326 10.3
2009-07-10 07:36:58 51°13.76 2°55.7 327.6 6.4 327 10.1
2009-07-10 07:37:03 51°13.768 2°55.692 328.3 6.7 327 10.3
2009-07-10 07:37:08 51°13.776 2°55.684 328.6 6.9 327 10.8
2009-07-10 07:37:13 51°13.784 2°55.676 329.5 7 330 10.9
2009-07-10 07:37:17 51°13.791 2°55.67 330.6 7.2 328 10.8
2009-07-10 07:37:22 51°13.8 2°55.661 330.8 7.3 330 10.9
2009-07-10 07:37:27 51°13.809 2°55.653 331.8 7.5 330 10.6
2009-07-10 07:37:32 51°13.818 2°55.645 332.5 7.5 332 10.7
2009-07-10 07:37:37 51°13.827 2°55.637 333.3 7.6 332 10.4
2009-07-10 07:37:41 51°13.835 2°55.631 334 7.7 333 10.4
2009-07-10 07:37:46 51°13.845 2°55.623 334.4 7.8 333 10
2009-07-10 07:37:52 51°13.856 2°55.614 334.5 7.8 333 10.4
2009-07-10 07:37:57 51°13.866 2°55.606 335 7.9 333 10.6
2009-07-10 07:38:01 51°13.874 2°55.599 335.6 7.9 334 10.6
2009-07-10 07:38:05 51°13.882 2°55.593 336 8 334 10.6
2009-07-10 07:38:12 51°13.895 2°55.582 335.4 8 333 10.4
2009-07-10 07:38:17 51°13.905 2°55.574 335 8.1 334 10.6
2009-07-10 07:38:21 51°13.913 2°55.568 335.4 8.1 334 10.6
2009-07-10 07:38:26 51°13.923 2°55.56 336.1 8.1 335 10.5
2009-07-10 07:38:32 51°13.936 2°55.551 336.2 8.1 335 10.6
2009-07-10 07:38:37 51°13.946 2°55.544 336.6 8.1 335 10.6
2009-07-10 07:38:42 51°13.956 2°55.536 336.8 8.1 335 10.6
2009-07-10 07:38:46 51°13.964 2°55.53 336.4 8.1 334 10.6
2009-07-10 07:38:52 51°13.976 2°55.52 336.1 8.2 335 10.5
2009-07-10 07:38:57 51°13.986 2°55.513 336.1 8.2 335 10.5
2009-07-10 07:39:02 51°13.997 2°55.505 336.3 8.2 336 10.5
2009-07-10 07:39:07 51°14.007 2°55.498 337.4 8.2 337 10.5
2009-07-10 07:39:11 51°14.016 2°55.492 338.1 8.2 337 10.3
2009-07-10 07:39:17 51°14.028 2°55.484 337.7 8.3 336 10.5
2009-07-10 07:39:21 51°14.037 2°55.477 336.3 8.3 335 10.5
2009-07-10 07:39:26 51°14.047 2°55.47 336.2 8.3 336 10.5
2009-07-10 07:39:32 51°14.06 2°55.461 336.6 8.4 335 10.5
2009-07-10 07:39:37 51°14.07 2°55.453 336.6 8.3 336 10.5
2009-07-10 07:39:42 51°14.081 2°55.445 336.2 8.3 335 10.4
2009-07-10 07:39:46 51°14.089 2°55.439 336.2 8.2 335 10.5
2009-07-10 07:39:52 51°14.102 2°55.431 336.7 8.2 336 10.4
2009-07-10 07:39:57 51°14.112 2°55.422 336.1 8.2 334 10.5
2009-07-10 07:40:01 51°14.12 2°55.416 335.4 8.2 334 10.5
2009-07-10 07:40:07 51°14.132 2°55.407 335 8.1 333 10.5
2009-07-10 07:40:12 51°14.142 2°55.399 334.7 8.1 333 10.5
2009-07-10 07:40:17 51°14.152 2°55.39 333.3 8.1 331 10.5
2009-07-10 07:40:21 51°14.16 2°55.383 332.5 8.1 331 10.3
2009-07-10 07:40:27 51°14.171 2°55.372 331.5 8 329 10.5
2009-07-10 07:40:32 51°14.181 2°55.362 330.2 8.1 327 10.6
2009-07-10 07:40:37 51°14.19 2°55.352 328.8 8 325 10.4
2009-07-10 07:40:41 51°14.197 2°55.344 326 8 323 10.4
2009-07-10 07:40:46 51°14.206 2°55.333 324.4 8.1 322 10.4
2009-07-10 07:40:52 51°14.216 2°55.319 323 8.2 321 10.5
2009-07-10 07:40:57 51°14.225 2°55.307 322 8.2 319 11
2009-07-10 07:41:02 51°14.234 2°55.295 321 8.3 319 10.4
2009-07-10 07:41:07 51°14.242 2°55.282 319.6 8.4 317 10.2
2009-07-10 07:41:12 51°14.251 2°55.269 317.7 8.6 315 10.2
2009-07-10 07:41:17 51°14.259 2°55.255 316.4 8.7 314 10.2
2009-07-10 07:41:22 51°14.267 2°55.241 315.4 8.9 313 9.6
2009-07-10 07:41:27 51°14.276 2°55.227 315.1 9 314 10.3
2009-07-10 07:41:32 51°14.285 2°55.212 315.8 9.1 315 10.2
2009-07-10 07:41:37 51°14.294 2°55.198 315.8 9.3 314 10.2
2009-07-10 07:41:41 51°14.301 2°55.186 315 9.3 313 11.1
2009-07-10 07:41:47 51°14.312 2°55.168 315.1 9.4 314 10.7
2009-07-10 07:41:52 51°14.32 2°55.153 315 9.4 313 10
2009-07-10 07:41:57 51°14.329 2°55.137 314.7 9.6 313 10.4
2009-07-10 07:42:01 51°14.337 2°55.125 313.8 9.8 312 10.2
2009-07-10 07:42:07 51°14.347 2°55.104 312 10 309 10.4
2009-07-10 07:42:13 51°14.358 2°55.084 310.7 10 311 -999
2009-07-10 07:42:18 51°14.367 2°55.067 311.4 10 311 10.8